Time,TemperatureF,DewpointF,PressureIn,WindDirection,WindDirectionDegrees,WindSpeedMPH,WindSpeedGustMPH,Humidity,HourlyPrecipIn,Conditions,Clouds,dailyrainin,SoftwareType,DateUTC
2013-07-11 00:01:00,49.0,45.0,29.88,WNW,302,0.0,0.0,86,0.00,,,0.00,,2013-07-11 07:01:00,
2013-07-11 00:12:00,49.0,46.0,29.88,WNW,302,0.0,0.0,88,0.00,,,0.00,,2013-07-11 07:12:00,
2013-07-11 00:22:00,49.0,46.0,29.88,WNW,302,0.0,0.0,88,0.00,,,0.00,,2013-07-11 07:22:00,
2013-07-11 00:32:00,50.0,47.0,29.88,WNW,302,0.0,0.0,88,0.00,,,0.00,,2013-07-11 07:32:00,
2013-07-11 00:45:00,50.0,47.0,29.87,WNW,302,0.0,0.0,89,0.00,,,0.00,,2013-07-11 07:45:00,
2013-07-11 01:02:00,50.0,47.0,29.87,WNW,302,0.0,0.0,89,0.00,,,0.00,,2013-07-11 08:02:00,
2013-07-11 01:11:00,51.0,48.0,29.88,WNW,302,0.0,0.0,88,0.00,,,0.00,,2013-07-11 08:11:00,
2013-07-11 01:22:00,51.0,48.0,29.88,WNW,302,0.0,0.0,88,0.00,,,0.00,,2013-07-11 08:22:00,
2013-07-11 01:33:00,51.0,48.0,29.87,WNW,302,0.0,0.0,88,0.00,,,0.00,,2013-07-11 08:33:00,
2013-07-11 01:42:00,51.0,48.0,29.87,WNW,302,0.0,0.0,88,0.00,,,0.00,,2013-07-11 08:42:00,
2013-07-11 01:53:00,51.0,48.0,29.87,WNW,302,0.0,0.0,88,0.00,,,0.00,,2013-07-11 08:53:00,
2013-07-11 02:02:00,51.0,48.0,29.87,WNW,302,0.0,0.0,88,0.00,,,0.00,,2013-07-11 09:02:00,
2013-07-11 02:12:00,51.0,48.0,29.86,WNW,302,0.0,0.0,88,0.00,,,0.00,,2013-07-11 09:12:00,
2013-07-11 02:33:00,51.0,47.0,29.86,SSW,194,0.0,0.0,87,0.00,,,0.00,,2013-07-11 09:33:00,
2013-07-11 02:43:00,51.0,47.0,29.85,South,186,0.0,2.0,87,0.00,,,0.00,,2013-07-11 09:43:00,
2013-07-11 02:53:00,51.0,47.0,29.85,South,186,0.0,2.0,87,0.00,,,0.00,,2013-07-11 09:53:00,
2013-07-11 03:01:00,50.0,46.0,29.86,South,172,0.0,1.0,87,0.00,,,0.00,,2013-07-11 10:01:00,
2013-07-11 03:11:00,50.0,46.0,29.86,South,172,0.0,1.0,87,0.00,,,0.00,,2013-07-11 10:11:00,
2013-07-11 03:33:00,51.0,48.0,29.86,South,172,0.0,0.0,88,0.00,,,0.00,,2013-07-11 10:33:00,
2013-07-11 03:42:00,51.0,48.0,29.86,South,172,0.0,0.0,88,0.00,,,0.00,,2013-07-11 10:42:00,
2013-07-11 03:52:00,51.0,48.0,29.86,South,172,0.0,0.0,88,0.00,,,0.00,,2013-07-11 10:52:00,
2013-07-11 04:01:00,51.0,48.0,29.86,South,171,0.0,0.0,88,0.00,,,0.00,,2013-07-11 11:01:00,
2013-07-11 04:11:00,51.0,48.0,29.86,South,171,0.0,0.0,88,0.00,,,0.00,,2013-07-11 11:11:00,
2013-07-11 04:32:00,50.0,47.0,29.85,South,172,0.0,0.0,89,0.00,,,0.00,,2013-07-11 11:32:00,
2013-07-11 04:42:00,50.0,47.0,29.85,South,172,0.0,0.0,89,0.00,,,0.00,,2013-07-11 11:42:00,
2013-07-11 04:52:00,50.0,47.0,29.85,South,172,0.0,0.0,89,0.00,,,0.00,,2013-07-11 11:52:00,
2013-07-11 05:01:00,50.0,47.0,29.85,South,172,0.0,0.0,89,0.00,,,0.00,,2013-07-11 12:01:00,
2013-07-11 05:11:00,50.0,47.0,29.85,South,172,0.0,0.0,90,0.00,,,0.00,,2013-07-11 12:11:00,
2013-07-11 05:22:00,50.0,47.0,29.85,South,172,0.0,0.0,90,0.00,,,0.00,,2013-07-11 12:22:00,
2013-07-11 05:33:00,50.0,47.0,29.85,South,171,0.0,0.0,90,0.00,,,0.00,,2013-07-11 12:33:00,
2013-07-11 05:43:00,50.0,47.0,29.85,South,171,0.0,0.0,90,0.00,,,0.00,,2013-07-11 12:43:00,
2013-07-11 06:01:00,50.0,47.0,29.85,SE,146,0.0,0.0,89,0.00,,,0.00,,2013-07-11 13:01:00,
2013-07-11 06:11:00,50.0,47.0,29.85,SE,146,0.0,0.0,89,0.00,,,0.00,,2013-07-11 13:11:00,
2013-07-11 06:33:00,50.0,47.0,29.87,SE,146,0.0,0.0,90,0.00,,,0.00,,2013-07-11 13:33:00,
2013-07-11 06:43:00,50.0,47.0,29.87,SE,146,0.0,0.0,90,0.00,,,0.00,,2013-07-11 13:43:00,
2013-07-11 06:54:00,50.0,47.0,29.87,SE,146,0.0,0.0,90,0.00,,,0.00,,2013-07-11 13:54:00,
2013-07-11 07:01:00,50.0,47.0,29.87,SE,146,0.0,0.0,90,0.00,,,0.00,,2013-07-11 14:01:00,
2013-07-11 07:33:00,51.0,48.0,29.87,South,176,0.0,0.0,91,0.00,,,0.00,,2013-07-11 14:33:00,
2013-07-11 07:43:00,51.0,48.0,29.88,South,176,0.0,0.0,91,0.00,,,0.00,,2013-07-11 14:43:00,
2013-07-11 08:02:00,51.0,48.0,29.88,South,176,0.0,0.0,91,0.00,,,0.00,,2013-07-11 15:02:00,
2013-07-11 08:11:00,52.0,49.0,29.88,South,176,0.0,0.0,91,0.00,,,0.00,,2013-07-11 15:11:00,
2013-07-11 08:22:00,52.0,49.0,29.88,South,176,0.0,0.0,91,0.00,,,0.00,,2013-07-11 15:22:00,
2013-07-11 08:33:00,52.0,49.0,29.88,South,176,0.0,0.0,90,0.00,,,0.00,,2013-07-11 15:33:00,
2013-07-11 08:44:00,52.0,49.0,29.88,South,176,0.0,0.0,90,0.00,,,0.00,,2013-07-11 15:44:00,
2013-07-11 08:53:00,52.0,49.0,29.88,South,176,0.0,0.0,90,0.00,,,0.00,,2013-07-11 15:53:00,
2013-07-11 09:01:00,53.0,50.0,29.88,South,176,0.0,0.0,90,0.00,,,0.00,,2013-07-11 16:01:00,
2013-07-11 09:12:00,53.0,50.0,29.88,South,175,0.0,0.0,89,0.00,,,0.00,,2013-07-11 16:12:00,
2013-07-11 09:22:00,53.0,50.0,29.88,South,175,0.0,0.0,89,0.00,,,0.00,,2013-07-11 16:22:00,
2013-07-11 09:33:00,53.0,50.0,29.88,South,174,0.0,2.0,88,0.00,,,0.00,,2013-07-11 16:33:00,
2013-07-11 09:43:00,54.0,50.0,29.88,East,96,0.0,2.0,87,0.00,,,0.00,,2013-07-11 16:43:00,
2013-07-11 09:53:00,54.0,50.0,29.88,East,96,0.0,2.0,87,0.00,,,0.00,,2013-07-11 16:53:00,
2013-07-11 10:01:00,54.0,50.0,29.88,East,96,0.0,2.0,87,0.00,,,0.00,,2013-07-11 17:01:00,
2013-07-11 10:12:00,55.0,50.0,29.87,East,95,0.0,2.0,84,0.00,,,0.00,,2013-07-11 17:12:00,
2013-07-11 10:47:00,56.0,51.0,29.87,NNW,347,0.0,2.0,82,0.00,,,0.00,,2013-07-11 17:47:00,
2013-07-11 10:53:00,56.0,51.0,29.87,NNW,347,0.0,2.0,82,0.00,,,0.00,,2013-07-11 17:53:00,
2013-07-11 11:02:00,59.0,52.0,29.87,NNW,338,1.0,3.0,79,0.00,,,0.00,,2013-07-11 18:02:00,
2013-07-11 11:11:00,59.0,52.0,29.87,NNW,338,1.0,3.0,79,0.00,,,0.00,,2013-07-11 18:11:00,
2013-07-11 11:33:00,62.0,54.0,29.86,NW,320,0.0,3.0,74,0.00,,,0.00,,2013-07-11 18:33:00,
2013-07-11 12:01:00,65.0,55.0,29.86,West,260,0.0,2.0,71,0.00,,,0.00,,2013-07-11 19:01:00,
2013-07-11 12:11:00,65.0,55.0,29.86,West,260,0.0,2.0,71,0.00,,,0.00,,2013-07-11 19:11:00,
2013-07-11 12:33:00,67.0,56.0,29.86,North,4,0.0,4.0,67,0.00,,,0.00,,2013-07-11 19:33:00,
2013-07-11 12:42:00,68.0,56.0,29.85,NNW,347,0.0,3.0,65,0.00,,,0.00,,2013-07-11 19:42:00,
2013-07-11 12:52:00,68.0,56.0,29.85,NNW,347,0.0,3.0,65,0.00,,,0.00,,2013-07-11 19:52:00,
2013-07-11 13:02:00,69.0,56.0,29.85,NNW,331,0.0,3.0,64,0.00,,,0.00,,2013-07-11 20:02:00,
2013-07-11 13:11:00,69.0,56.0,29.85,NNW,331,0.0,3.0,64,0.00,,,0.00,,2013-07-11 20:11:00,
2013-07-11 13:33:00,70.0,56.0,29.85,NW,314,1.0,4.0,62,0.00,,,0.00,,2013-07-11 20:33:00,
2013-07-11 13:43:00,71.0,56.0,29.84,NNW,336,1.0,5.0,59,0.00,,,0.00,,2013-07-11 20:43:00,
2013-07-11 13:52:00,71.0,56.0,29.84,NNW,336,1.0,5.0,59,0.00,,,0.00,,2013-07-11 20:52:00,
2013-07-11 14:02:00,73.0,57.0,29.83,NNW,336,1.0,3.0,58,0.00,,,0.00,,2013-07-11 21:02:00,
2013-07-11 14:11:00,73.0,57.0,29.83,NNW,336,1.0,3.0,58,0.00,,,0.00,,2013-07-11 21:11:00,
2013-07-11 14:43:00,74.0,57.0,29.83,NW,322,0.0,3.0,55,0.00,,,0.00,,2013-07-11 21:43:00,
2013-07-11 14:52:00,74.0,57.0,29.83,NW,322,0.0,3.0,55,0.00,,,0.00,,2013-07-11 21:52:00,
2013-07-11 15:02:00,75.0,57.0,29.82,NNW,333,1.0,6.0,54,0.00,,,0.00,,2013-07-11 22:02:00,
2013-07-11 15:11:00,75.0,56.0,29.82,North,355,1.0,3.0,52,0.00,,,0.00,,2013-07-11 22:11:00,
2013-07-11 15:21:00,75.0,56.0,29.82,North,355,1.0,3.0,52,0.00,,,0.00,,2013-07-11 22:21:00,
2013-07-11 15:31:00,76.0,57.0,29.82,WNW,286,0.0,3.0,52,0.00,,,0.00,,2013-07-11 22:31:00,
2013-07-11 15:43:00,76.0,57.0,29.81,North,358,0.0,4.0,52,0.00,,,0.00,,2013-07-11 22:43:00,
2013-07-11 15:54:00,76.0,57.0,29.81,North,358,0.0,4.0,52,0.00,,,0.00,,2013-07-11 22:54:00,
2013-07-11 16:01:00,76.0,57.0,29.80,NW,324,1.0,5.0,51,0.00,,,0.00,,2013-07-11 23:01:00,
2013-07-11 16:43:00,74.0,55.0,29.80,NNW,348,1.0,6.0,52,0.00,,,0.00,,2013-07-11 23:43:00,
2013-07-11 16:53:00,74.0,55.0,29.80,NNW,348,1.0,6.0,52,0.00,,,0.00,,2013-07-11 23:53:00,
2013-07-11 17:02:00,72.0,53.0,29.80,North,357,1.0,6.0,52,0.00,,,0.00,,2013-07-12 00:02:00,
2013-07-11 17:11:00,72.0,54.0,29.80,North,2,1.0,5.0,53,0.00,,,0.00,,2013-07-12 00:11:00,
2013-07-11 17:22:00,72.0,54.0,29.80,North,2,1.0,5.0,53,0.00,,,0.00,,2013-07-12 00:22:00,
2013-07-11 17:43:00,72.0,54.0,29.80,North,2,1.0,5.0,53,0.00,,,0.00,,2013-07-12 00:43:00,
2013-07-11 18:01:00,69.0,53.0,29.79,NNW,330,0.0,3.0,56,0.00,,,0.00,,2013-07-12 01:01:00,
2013-07-11 18:12:00,69.0,53.0,29.79,NNW,330,0.0,3.0,56,0.00,,,0.00,,2013-07-12 01:12:00,
2013-07-11 18:23:00,69.0,53.0,29.79,NNW,330,0.0,3.0,56,0.00,,,0.00,,2013-07-12 01:23:00,
2013-07-11 18:32:00,69.0,53.0,29.79,NNW,331,0.0,3.0,57,0.00,,,0.00,,2013-07-12 01:32:00,
2013-07-11 18:43:00,69.0,53.0,29.79,NNW,331,0.0,3.0,57,0.00,,,0.00,,2013-07-12 01:43:00,
2013-07-11 19:02:00,67.0,52.0,29.79,North,356,1.0,3.0,59,0.00,,,0.00,,2013-07-12 02:02:00,
2013-07-11 19:12:00,66.0,52.0,29.79,South,179,1.0,5.0,61,0.00,,,0.00,,2013-07-12 02:12:00,
2013-07-11 19:22:00,66.0,52.0,29.79,South,179,1.0,5.0,61,0.00,,,0.00,,2013-07-12 02:22:00,
2013-07-11 19:33:00,63.0,51.0,29.79,WNW,300,0.0,3.0,65,0.00,,,0.00,,2013-07-12 02:33:00,
2013-07-11 19:42:00,63.0,51.0,29.79,WNW,300,0.0,3.0,65,0.00,,,0.00,,2013-07-12 02:42:00,
2013-07-11 20:01:00,59.0,50.0,29.80,NNW,340,0.0,3.0,73,0.00,,,0.00,,2013-07-12 03:01:00,
2013-07-11 20:12:00,58.0,50.0,29.80,NW,324,0.0,0.0,74,0.00,,,0.00,,2013-07-12 03:12:00,
2013-07-11 20:32:00,57.0,50.0,29.79,WNW,294,0.0,0.0,76,0.00,,,0.00,,2013-07-12 03:32:00,
2013-07-11 20:42:00,56.0,49.0,29.80,WNW,302,0.0,0.0,78,0.00,,,0.00,,2013-07-12 03:42:00,
2013-07-11 21:01:00,55.0,49.0,29.80,WNW,301,0.0,1.0,80,0.00,,,0.00,,2013-07-12 04:01:00,
2013-07-11 21:11:00,54.0,48.0,29.81,WNW,301,0.0,1.0,81,0.00,,,0.00,,2013-07-12 04:11:00,
2013-07-11 21:32:00,54.0,49.0,29.81,NW,305,0.0,2.0,83,0.00,,,0.00,,2013-07-12 04:32:00,
2013-07-11 21:43:00,54.0,49.0,29.81,NW,305,0.0,0.0,84,0.00,,,0.00,,2013-07-12 04:43:00,
2013-07-11 22:01:00,53.0,48.0,29.82,NW,305,0.0,0.0,84,0.00,,,0.00,,2013-07-12 05:01:00,
2013-07-11 22:11:00,53.0,48.0,29.82,NW,305,0.0,0.0,84,0.00,,,0.00,,2013-07-12 05:11:00,
2013-07-11 22:22:00,53.0,48.0,29.82,NW,305,0.0,0.0,84,0.00,,,0.00,,2013-07-12 05:22:00,
2013-07-11 22:32:00,53.0,49.0,29.83,NW,305,0.0,0.0,87,0.00,,,0.00,,2013-07-12 05:32:00,
2013-07-11 22:42:00,53.0,49.0,29.83,NW,305,0.0,0.0,87,0.00,,,0.00,,2013-07-12 05:42:00,
2013-07-11 22:53:00,53.0,49.0,29.83,NW,305,0.0,0.0,87,0.00,,,0.00,,2013-07-12 05:53:00,
2013-07-11 23:01:00,53.0,49.0,29.84,NW,305,0.0,0.0,87,0.00,,,0.00,,2013-07-12 06:01:00,
2013-07-11 23:11:00,53.0,49.0,29.84,NW,305,0.0,0.0,87,0.00,,,0.00,,2013-07-12 06:11:00,
2013-07-11 23:22:00,53.0,49.0,29.84,NW,305,0.0,0.0,87,0.00,,,0.00,,2013-07-12 06:22:00,
2013-07-11 23:32:00,53.0,49.0,29.84,NW,305,0.0,0.0,87,0.00,,,0.00,,2013-07-12 06:32:00,
2013-07-11 23:52:00,54.0,50.0,29.83,WSW,250,0.0,1.0,87,0.00,,,0.00,,2013-07-12 06:52:00,